sensor_id;sensor_type;location;lat;lon;timestamp;pressure;altitude;pressure_sealevel;temperature;humidity
57791;BME280;43621;51.798;21.588;2023-02-17T00:03:02;100217.19;;;2.94;63.96
57791;BME280;43621;51.798;21.588;2023-02-17T00:07:04;100214.50;;;3.02;64.28
57791;BME280;43621;51.798;21.588;2023-02-17T00:11:06;100215.61;;;3.07;64.23
57791;BME280;43621;51.798;21.588;2023-02-17T00:15:08;100217.27;;;3.08;64.20
57791;BME280;43621;51.798;21.588;2023-02-17T00:19:11;100217.52;;;3.07;64.24
57791;BME280;43621;51.798;21.588;2023-02-17T00:23:25;100211.48;;;3.04;64.18
57791;BME280;43621;51.798;21.588;2023-02-17T00:27:27;100211.48;;;2.98;64.05
57791;BME280;43621;51.798;21.588;2023-02-17T00:31:29;100209.34;;;2.93;64.22
57791;BME280;43621;51.798;21.588;2023-02-17T00:35:30;100214.84;;;2.93;64.35
57791;BME280;43621;51.798;21.588;2023-02-17T00:39:32;100210.01;;;2.96;64.50
57791;BME280;43621;51.798;21.588;2023-02-17T00:43:34;100208.89;;;3.01;64.50
57791;BME280;43621;51.798;21.588;2023-02-17T00:47:36;100207.55;;;3.06;64.52
57791;BME280;43621;51.798;21.588;2023-02-17T00:51:38;100206.72;;;3.12;64.58
57791;BME280;43621;51.798;21.588;2023-02-17T00:55:41;100199.20;;;3.19;64.72
57791;BME280;43621;51.798;21.588;2023-02-17T00:59:43;100192.07;;;3.26;64.69
57791;BME280;43621;51.798;21.588;2023-02-17T01:03:45;100185.54;;;3.32;64.69
57791;BME280;43621;51.798;21.588;2023-02-17T01:07:47;100183.86;;;3.34;64.69
57791;BME280;43621;51.798;21.588;2023-02-17T01:11:49;100178.38;;;3.36;64.75
57791;BME280;43621;51.798;21.588;2023-02-17T01:15:52;100172.20;;;3.33;64.57
57791;BME280;43621;51.798;21.588;2023-02-17T01:19:54;100168.28;;;3.29;64.77
57791;BME280;43621;51.798;21.588;2023-02-17T01:23:59;100159.79;;;3.29;64.87
57791;BME280;43621;51.798;21.588;2023-02-17T01:28:02;100156.59;;;3.31;64.93
57791;BME280;43621;51.798;21.588;2023-02-17T01:32:04;100157.55;;;3.35;64.93
57791;BME280;43621;51.798;21.588;2023-02-17T01:36:11;100155.08;;;3.42;64.86
57791;BME280;43621;51.798;21.588;2023-02-17T01:40:15;100153.08;;;3.49;64.89
57791;BME280;43621;51.798;21.588;2023-02-17T01:44:22;100151.39;;;3.58;64.96
57791;BME280;43621;51.798;21.588;2023-02-17T01:48:35;100150.17;;;3.61;64.92
57791;BME280;43621;51.798;21.588;2023-02-17T01:52:40;100147.58;;;3.64;64.97
57791;BME280;43621;51.798;21.588;2023-02-17T01:56:45;100144.48;;;3.66;64.94
57791;BME280;43621;51.798;21.588;2023-02-17T02:00:51;100142.52;;;3.67;64.94
57791;BME280;43621;51.798;21.588;2023-02-17T02:04:54;100141.69;;;3.70;64.96
57791;BME280;43621;51.798;21.588;2023-02-17T02:09:18;100138.19;;;3.71;64.84
57791;BME280;43621;51.798;21.588;2023-02-17T02:13:21;100132.36;;;3.70;64.79
57791;BME280;43621;51.798;21.588;2023-02-17T02:30:48;100110.52;;;3.94;64.97
57791;BME280;43621;51.798;21.588;2023-02-17T02:34:59;100100.17;;;4.05;64.91
57791;BME280;43621;51.798;21.588;2023-02-17T02:39:08;100095.39;;;4.14;64.86
57791;BME280;43621;51.798;21.588;2023-02-17T02:43:12;100092.52;;;4.19;64.79
57791;BME280;43621;51.798;21.588;2023-02-17T02:47:42;100100.30;;;4.22;64.89
57791;BME280;43621;51.798;21.588;2023-02-17T03:05:11;100103.44;;;4.27;64.65
57791;BME280;43621;51.798;21.588;2023-02-17T03:09:23;100106.08;;;4.26;64.56
57791;BME280;43621;51.798;21.588;2023-02-17T03:13:32;100105.85;;;4.25;64.56
57791;BME280;43621;51.798;21.588;2023-02-17T03:17:34;100110.55;;;4.27;64.59
57791;BME280;43621;51.798;21.588;2023-02-17T03:25:49;100104.31;;;4.35;64.69
57791;BME280;43621;51.798;21.588;2023-02-17T03:29:51;100107.60;;;4.40;64.66
57791;BME280;43621;51.798;21.588;2023-02-17T03:33:53;100106.19;;;4.43;64.69
57791;BME280;43621;51.798;21.588;2023-02-17T03:37:55;100099.64;;;4.45;64.64
57791;BME280;43621;51.798;21.588;2023-02-17T03:41:57;100100.92;;;4.44;64.64
57791;BME280;43621;51.798;21.588;2023-02-17T03:45:59;100106.59;;;4.40;64.51
57791;BME280;43621;51.798;21.588;2023-02-17T03:50:01;100110.81;;;4.33;64.48
57791;BME280;43621;51.798;21.588;2023-02-17T03:54:02;100110.05;;;4.26;64.51
57791;BME280;43621;51.798;21.588;2023-02-17T03:58:04;100103.29;;;4.24;64.67
57791;BME280;43621;51.798;21.588;2023-02-17T04:02:06;100096.84;;;4.25;64.62
57791;BME280;43621;51.798;21.588;2023-02-17T04:06:09;100098.93;;;4.25;64.54
57791;BME280;43621;51.798;21.588;2023-02-17T04:10:11;100095.23;;;4.26;64.56
57791;BME280;43621;51.798;21.588;2023-02-17T04:14:13;100100.19;;;4.27;64.62
57791;BME280;43621;51.798;21.588;2023-02-17T04:18:15;100096.88;;;4.27;64.77
57791;BME280;43621;51.798;21.588;2023-02-17T04:22:17;100101.17;;;4.27;64.92
57791;BME280;43621;51.798;21.588;2023-02-17T04:26:19;100097.42;;;4.29;64.99
57791;BME280;43621;51.798;21.588;2023-02-17T04:30:21;100093.65;;;4.31;65.01
57791;BME280;43621;51.798;21.588;2023-02-17T04:34:23;100092.93;;;4.32;65.00
57791;BME280;43621;51.798;21.588;2023-02-17T04:38:26;100090.92;;;4.31;64.95
57791;BME280;43621;51.798;21.588;2023-02-17T04:42:29;100086.77;;;4.31;64.95
57791;BME280;43621;51.798;21.588;2023-02-17T04:46:31;100085.89;;;4.34;64.94
57791;BME280;43621;51.798;21.588;2023-02-17T04:50:33;100086.96;;;4.38;64.96
57791;BME280;43621;51.798;21.588;2023-02-17T04:54:35;100089.27;;;4.43;65.07
57791;BME280;43621;51.798;21.588;2023-02-17T04:58:37;100084.38;;;4.49;65.10
57791;BME280;43621;51.798;21.588;2023-02-17T05:02:39;100080.02;;;4.55;65.19
57791;BME280;43621;51.798;21.588;2023-02-17T05:06:41;100075.96;;;4.54;65.08
57791;BME280;43621;51.798;21.588;2023-02-17T05:10:43;100074.39;;;4.54;65.17
57791;BME280;43621;51.798;21.588;2023-02-17T05:14:45;100075.68;;;4.53;65.20
57791;BME280;43621;51.798;21.588;2023-02-17T05:18:47;100072.02;;;4.50;65.35
57791;BME280;43621;51.798;21.588;2023-02-17T05:22:48;100072.13;;;4.46;65.24
57791;BME280;43621;51.798;21.588;2023-02-17T05:26:50;100070.09;;;4.43;65.24
57791;BME280;43621;51.798;21.588;2023-02-17T05:30:52;100076.84;;;4.40;65.26
57791;BME280;43621;51.798;21.588;2023-02-17T05:34:54;100072.49;;;4.40;65.30
57791;BME280;43621;51.798;21.588;2023-02-17T05:38:56;100074.49;;;4.42;65.39
57791;BME280;43621;51.798;21.588;2023-02-17T05:42:58;100079.38;;;4.46;65.49
57791;BME280;43621;51.798;21.588;2023-02-17T05:47:00;100078.95;;;4.53;65.69
57791;BME280;43621;51.798;21.588;2023-02-17T05:51:02;100061.57;;;4.49;65.53
57791;BME280;43621;51.798;21.588;2023-02-17T05:55:04;100037.23;;;4.40;65.42
57791;BME280;43621;51.798;21.588;2023-02-17T05:59:06;100043.69;;;4.32;65.62
57791;BME280;43621;51.798;21.588;2023-02-17T06:03:08;100047.83;;;4.26;65.81
57791;BME280;43621;51.798;21.588;2023-02-17T06:07:10;100046.05;;;4.25;65.97
57791;BME280;43621;51.798;21.588;2023-02-17T06:11:12;100046.48;;;4.23;66.07
57791;BME280;43621;51.798;21.588;2023-02-17T06:15:14;100048.41;;;4.20;66.01
57791;BME280;43621;51.798;21.588;2023-02-17T06:19:16;100045.84;;;4.20;66.16
57791;BME280;43621;51.798;21.588;2023-02-17T06:23:18;100044.71;;;4.18;66.16
57791;BME280;43621;51.798;21.588;2023-02-17T06:27:20;100045.77;;;4.24;66.29
57791;BME280;43621;51.798;21.588;2023-02-17T06:31:22;100038.65;;;4.29;66.36
57791;BME280;43621;51.798;21.588;2023-02-17T06:35:25;100035.89;;;4.32;66.22
57791;BME280;43621;51.798;21.588;2023-02-17T06:39:26;100032.38;;;4.27;66.08
57791;BME280;43621;51.798;21.588;2023-02-17T06:43:28;100031.69;;;4.28;66.21
57791;BME280;43621;51.798;21.588;2023-02-17T06:47:34;100028.98;;;4.27;66.38
57791;BME280;43621;51.798;21.588;2023-02-17T06:51:36;100025.79;;;4.20;66.49
57791;BME280;43621;51.798;21.588;2023-02-17T06:55:38;100029.05;;;4.14;66.54
57791;BME280;43621;51.798;21.588;2023-02-17T06:59:40;100036.11;;;4.12;66.79
57791;BME280;43621;51.798;21.588;2023-02-17T07:03:42;100032.41;;;4.19;66.94
57791;BME280;43621;51.798;21.588;2023-02-17T07:07:44;100032.70;;;4.30;66.95
57791;BME280;43621;51.798;21.588;2023-02-17T07:11:46;100031.04;;;4.40;66.93
57791;BME280;43621;51.798;21.588;2023-02-17T07:15:47;100028.80;;;4.50;67.00
57791;BME280;43621;51.798;21.588;2023-02-17T07:19:49;100036.71;;;4.59;66.91
57791;BME280;43621;51.798;21.588;2023-02-17T07:23:51;100033.06;;;4.67;66.82
57791;BME280;43621;51.798;21.588;2023-02-17T07:27:53;100025.87;;;4.71;66.86
57791;BME280;43621;51.798;21.588;2023-02-17T07:31:55;100018.80;;;4.73;66.86
57791;BME280;43621;51.798;21.588;2023-02-17T07:35:57;100013.81;;;4.80;66.98
57791;BME280;43621;51.798;21.588;2023-02-17T07:39:59;100007.71;;;4.92;67.01
57791;BME280;43621;51.798;21.588;2023-02-17T07:44:01;100011.39;;;5.09;67.03
57791;BME280;43621;51.798;21.588;2023-02-17T07:48:03;100005.46;;;5.30;67.16
57791;BME280;43621;51.798;21.588;2023-02-17T07:52:05;100005.31;;;5.54;66.89
57791;BME280;43621;51.798;21.588;2023-02-17T07:56:10;100002.37;;;5.76;66.56
57791;BME280;43621;51.798;21.588;2023-02-17T08:00:12;100001.10;;;5.94;66.55
57791;BME280;43621;51.798;21.588;2023-02-17T08:04:15;99994.79;;;6.07;66.35
57791;BME280;43621;51.798;21.588;2023-02-17T08:08:17;99985.18;;;6.03;65.99
57791;BME280;43621;51.798;21.588;2023-02-17T08:12:37;99990.08;;;5.96;65.92
57791;BME280;43621;51.798;21.588;2023-02-17T08:17:06;99993.42;;;5.93;65.95
57791;BME280;43621;51.798;21.588;2023-02-17T08:21:08;99992.10;;;5.94;65.91
57791;BME280;43621;51.798;21.588;2023-02-17T08:25:10;99984.55;;;6.00;66.05
57791;BME280;43621;51.798;21.588;2023-02-17T08:29:12;99976.90;;;6.00;65.95
57791;BME280;43621;51.798;21.588;2023-02-17T08:33:14;99970.61;;;6.01;65.84
57791;BME280;43621;51.798;21.588;2023-02-17T08:37:18;99974.48;;;6.15;65.97
57791;BME280;43621;51.798;21.588;2023-02-17T08:41:29;99978.48;;;6.31;65.75
57791;BME280;43621;51.798;21.588;2023-02-17T08:45:31;99970.76;;;6.46;65.80
57791;BME280;43621;51.798;21.588;2023-02-17T08:49:33;99964.59;;;6.75;65.81
57791;BME280;43621;51.798;21.588;2023-02-17T08:53:36;99961.48;;;7.13;65.30
57791;BME280;43621;51.798;21.588;2023-02-17T08:57:38;99958.28;;;7.74;65.21
57791;BME280;43621;51.798;21.588;2023-02-17T09:01:40;99956.06;;;9.01;65.05
57791;BME280;43621;51.798;21.588;2023-02-17T09:05:42;99950.13;;;9.84;64.34
57791;BME280;43621;51.798;21.588;2023-02-17T09:09:44;99943.52;;;10.09;63.60
57791;BME280;43621;51.798;21.588;2023-02-17T09:13:46;99937.40;;;10.34;62.41
57791;BME280;43621;51.798;21.588;2023-02-17T09:17:48;99939.14;;;10.65;61.64
57791;BME280;43621;51.798;21.588;2023-02-17T09:21:50;99940.98;;;10.77;60.94
57791;BME280;43621;51.798;21.588;2023-02-17T09:26:06;99938.14;;;10.55;60.30
57791;BME280;43621;51.798;21.588;2023-02-17T09:30:09;99939.27;;;10.21;60.16
57791;BME280;43621;51.798;21.588;2023-02-17T09:34:11;99937.52;;;9.92;60.32
57791;BME280;43621;51.798;21.588;2023-02-17T09:38:13;99934.90;;;9.82;60.26
57791;BME280;43621;51.798;21.588;2023-02-17T09:42:27;99936.37;;;9.93;60.20
57791;BME280;43621;51.798;21.588;2023-02-17T09:46:35;99926.41;;;10.28;60.25
57791;BME280;43621;51.798;21.588;2023-02-17T09:50:50;99918.83;;;10.64;59.95
57791;BME280;43621;51.798;21.588;2023-02-17T09:55:03;99914.16;;;10.72;59.69
57791;BME280;43621;51.798;21.588;2023-02-17T10:04:31;99900.96;;;10.55;58.75
57791;BME280;43621;51.798;21.588;2023-02-17T10:08:18;99893.94;;;10.29;58.79
57791;BME280;43621;51.798;21.588;2023-02-17T10:12:29;99885.40;;;10.24;59.26
57791;BME280;43621;51.798;21.588;2023-02-17T10:16:46;99881.38;;;10.23;58.99
57791;BME280;43621;51.798;21.588;2023-02-17T10:21:05;99878.84;;;10.05;58.84
57791;BME280;43621;51.798;21.588;2023-02-17T10:25:16;99876.29;;;9.83;59.02
57791;BME280;43621;51.798;21.588;2023-02-17T10:29:48;99869.55;;;9.61;59.09
57791;BME280;43621;51.798;21.588;2023-02-17T10:34:34;99862.14;;;9.48;59.36
57791;BME280;43621;51.798;21.588;2023-02-17T10:39:34;99858.94;;;9.43;59.58
57791;BME280;43621;51.798;21.588;2023-02-17T10:43:27;99852.36;;;9.47;59.46
57791;BME280;43621;51.798;21.588;2023-02-17T10:47:35;99846.05;;;9.55;59.54
57791;BME280;43621;51.798;21.588;2023-02-17T10:51:40;99841.39;;;9.58;59.48
57791;BME280;43621;51.798;21.588;2023-02-17T11:00:23;99835.11;;;9.37;59.32
57791;BME280;43621;51.798;21.588;2023-02-17T11:04:25;99828.77;;;9.12;59.25
57791;BME280;43621;51.798;21.588;2023-02-17T11:08:34;99819.21;;;8.86;59.49
57791;BME280;43621;51.798;21.588;2023-02-17T11:12:41;99813.76;;;8.70;60.16
57791;BME280;43621;51.798;21.588;2023-02-17T11:16:45;99803.45;;;8.53;60.48
57791;BME280;43621;51.798;21.588;2023-02-17T11:20:48;99798.98;;;8.42;60.64
57791;BME280;43621;51.798;21.588;2023-02-17T11:24:57;99794.56;;;8.34;60.86
57791;BME280;43621;51.798;21.588;2023-02-17T11:33:13;99790.41;;;8.20;61.16
57791;BME280;43621;51.798;21.588;2023-02-17T11:37:21;99781.30;;;8.10;61.33
57791;BME280;43621;51.798;21.588;2023-02-17T11:41:24;99774.48;;;8.07;61.81
57791;BME280;43621;51.798;21.588;2023-02-17T11:45:43;99764.30;;;8.04;61.97
57791;BME280;43621;51.798;21.588;2023-02-17T11:49:59;99754.77;;;8.03;62.27
57791;BME280;43621;51.798;21.588;2023-02-17T12:03:30;99718.37;;;7.94;63.12
57791;BME280;43621;51.798;21.588;2023-02-17T12:12:17;99698.95;;;8.10;63.53
57791;BME280;43621;51.798;21.588;2023-02-17T12:33:29;99659.59;;;8.41;64.28
57791;BME280;43621;51.798;21.588;2023-02-17T12:37:44;99650.86;;;8.43;64.30
57791;BME280;43621;51.798;21.588;2023-02-17T12:42:08;99641.92;;;8.42;64.49
57791;BME280;43621;51.798;21.588;2023-02-17T12:46:15;99636.42;;;8.31;64.61
57791;BME280;43621;51.798;21.588;2023-02-17T12:50:26;99625.52;;;8.22;64.70
57791;BME280;43621;51.798;21.588;2023-02-17T12:54:53;99613.40;;;8.14;64.79
57791;BME280;43621;51.798;21.588;2023-02-17T12:59:08;99599.34;;;8.12;64.81
57791;BME280;43621;51.798;21.588;2023-02-17T13:03:11;99591.58;;;8.11;65.01
57791;BME280;43621;51.798;21.588;2023-02-17T13:07:38;99583.61;;;8.11;65.11
57791;BME280;43621;51.798;21.588;2023-02-17T13:11:43;99572.80;;;8.15;65.17
57791;BME280;43621;51.798;21.588;2023-02-17T13:15:46;99571.08;;;8.19;65.36
57791;BME280;43621;51.798;21.588;2023-02-17T13:24:05;99557.27;;;8.18;65.79
57791;BME280;43621;51.798;21.588;2023-02-17T13:28:32;99554.98;;;8.06;65.84
57791;BME280;43621;51.798;21.588;2023-02-17T13:32:36;99552.59;;;7.94;66.10
57791;BME280;43621;51.798;21.588;2023-02-17T13:36:39;99547.45;;;7.89;66.37
57791;BME280;43621;51.798;21.588;2023-02-17T13:40:41;99535.43;;;7.89;66.21
57791;BME280;43621;51.798;21.588;2023-02-17T13:44:44;99529.13;;;7.94;66.37
57791;BME280;43621;51.798;21.588;2023-02-17T13:49:00;99523.58;;;7.95;66.57
57791;BME280;43621;51.798;21.588;2023-02-17T13:57:24;99533.51;;;7.87;66.82
57791;BME280;43621;51.798;21.588;2023-02-17T14:01:26;99532.52;;;7.85;66.89
57791;BME280;43621;51.798;21.588;2023-02-17T14:09:33;99518.16;;;7.86;67.54
57791;BME280;43621;51.798;21.588;2023-02-17T14:13:39;99513.83;;;7.86;67.60
57791;BME280;43621;51.798;21.588;2023-02-17T14:17:42;99506.34;;;7.88;67.54
57791;BME280;43621;51.798;21.588;2023-02-17T14:26:09;99501.04;;;7.85;67.71
57791;BME280;43621;51.798;21.588;2023-02-17T14:34:33;99484.95;;;7.80;67.93
57791;BME280;43621;51.798;21.588;2023-02-17T14:38:39;99474.70;;;7.81;68.06
57791;BME280;43621;51.798;21.588;2023-02-17T14:42:42;99467.86;;;7.77;68.29
57791;BME280;43621;51.798;21.588;2023-02-17T14:46:44;99456.13;;;7.72;68.46
57791;BME280;43621;51.798;21.588;2023-02-17T14:50:46;99448.44;;;7.66;69.02
57791;BME280;43621;51.798;21.588;2023-02-17T14:54:48;99436.67;;;7.64;68.87
57791;BME280;43621;51.798;21.588;2023-02-17T14:58:51;99427.87;;;7.65;68.92
57791;BME280;43621;51.798;21.588;2023-02-17T15:02:56;99420.41;;;7.65;69.21
57791;BME280;43621;51.798;21.588;2023-02-17T15:06:58;99408.30;;;7.66;69.17
57791;BME280;43621;51.798;21.588;2023-02-17T15:11:00;99401.23;;;7.64;69.29
57791;BME280;43621;51.798;21.588;2023-02-17T15:15:03;99396.90;;;7.60;69.43
57791;BME280;43621;51.798;21.588;2023-02-17T15:19:05;99385.98;;;7.56;69.91
57791;BME280;43621;51.798;21.588;2023-02-17T15:23:18;99377.52;;;7.52;69.80
57791;BME280;43621;51.798;21.588;2023-02-17T15:27:21;99362.30;;;7.47;70.38
57791;BME280;43621;51.798;21.588;2023-02-17T15:31:25;99352.32;;;7.44;70.36
57791;BME280;43621;51.798;21.588;2023-02-17T15:35:30;99341.55;;;7.44;70.51
57791;BME280;43621;51.798;21.588;2023-02-17T15:39:32;99335.56;;;7.43;70.49
57791;BME280;43621;51.798;21.588;2023-02-17T15:43:34;99326.79;;;7.44;70.50
57791;BME280;43621;51.798;21.588;2023-02-17T15:47:37;99315.74;;;7.45;70.71
57791;BME280;43621;51.798;21.588;2023-02-17T15:51:39;99311.80;;;7.45;71.08
57791;BME280;43621;51.798;21.588;2023-02-17T15:55:41;99307.05;;;7.44;71.09
57791;BME280;43621;51.798;21.588;2023-02-17T15:59:43;99300.66;;;7.43;71.04
57791;BME280;43621;51.798;21.588;2023-02-17T16:03:45;99296.46;;;7.43;71.40
57791;BME280;43621;51.798;21.588;2023-02-17T16:07:47;99292.90;;;7.43;71.59
57791;BME280;43621;51.798;21.588;2023-02-17T16:11:51;99288.16;;;7.41;71.74
57791;BME280;43621;51.798;21.588;2023-02-17T16:15:56;99283.41;;;7.37;71.91
57791;BME280;43621;51.798;21.588;2023-02-17T16:19:59;99275.95;;;7.37;71.96
57791;BME280;43621;51.798;21.588;2023-02-17T16:24:01;99273.93;;;7.37;72.23
57791;BME280;43621;51.798;21.588;2023-02-17T16:28:05;99269.30;;;7.36;72.66
57791;BME280;43621;51.798;21.588;2023-02-17T16:32:08;99261.76;;;7.35;72.74
57791;BME280;43621;51.798;21.588;2023-02-17T16:36:13;99254.22;;;7.34;72.58
57791;BME280;43621;51.798;21.588;2023-02-17T16:40:18;99252.08;;;7.31;73.08
57791;BME280;43621;51.798;21.588;2023-02-17T16:44:21;99238.79;;;7.28;73.13
57791;BME280;43621;51.798;21.588;2023-02-17T16:48:25;99230.02;;;7.27;73.01
57791;BME280;43621;51.798;21.588;2023-02-17T16:52:28;99222.95;;;7.29;73.10
57791;BME280;43621;51.798;21.588;2023-02-17T16:56:35;99217.10;;;7.30;73.17
57791;BME280;43621;51.798;21.588;2023-02-17T17:00:38;99209.52;;;7.27;73.08
57791;BME280;43621;51.798;21.588;2023-02-17T17:04:40;99198.00;;;7.26;73.16
57791;BME280;43621;51.798;21.588;2023-02-17T17:08:43;99190.58;;;7.24;73.50
57791;BME280;43621;51.798;21.588;2023-02-17T17:12:45;99185.34;;;7.22;73.69
57791;BME280;43621;51.798;21.588;2023-02-17T17:16:51;99178.52;;;7.23;73.94
57791;BME280;43621;51.798;21.588;2023-02-17T17:20:54;99176.55;;;7.21;73.72
57791;BME280;43621;51.798;21.588;2023-02-17T17:24:56;99174.19;;;7.22;73.77
57791;BME280;43621;51.798;21.588;2023-02-17T17:29:00;99165.11;;;7.23;74.18
57791;BME280;43621;51.798;21.588;2023-02-17T17:33:02;99156.04;;;7.24;74.70
57791;BME280;43621;51.798;21.588;2023-02-17T17:37:04;99149.69;;;7.19;74.77
57791;BME280;43621;51.798;21.588;2023-02-17T17:41:10;99141.98;;;7.11;74.78
57791;BME280;43621;51.798;21.588;2023-02-17T17:45:13;99121.70;;;7.08;74.92
57791;BME280;43621;51.798;21.588;2023-02-17T17:49:16;99114.71;;;7.09;74.73
57791;BME280;43621;51.798;21.588;2023-02-17T17:53:19;99110.58;;;7.09;74.87
57791;BME280;43621;51.798;21.588;2023-02-17T17:57:20;99103.31;;;7.06;75.48
57791;BME280;43621;51.798;21.588;2023-02-17T18:01:23;99082.05;;;7.03;75.52
57791;BME280;43621;51.798;21.588;2023-02-17T18:05:25;99075.87;;;7.01;75.40
57791;BME280;43621;51.798;21.588;2023-02-17T18:09:30;99066.31;;;6.97;75.50
57791;BME280;43621;51.798;21.588;2023-02-17T18:13:34;99055.96;;;6.97;75.66
57791;BME280;43621;51.798;21.588;2023-02-17T18:17:38;99050.88;;;7.03;76.48
57791;BME280;43621;51.798;21.588;2023-02-17T18:21:41;99059.83;;;7.17;76.23
57791;BME280;43621;51.798;21.588;2023-02-17T18:25:44;99034.86;;;7.20;75.80
57791;BME280;43621;51.798;21.588;2023-02-17T18:29:47;99035.91;;;7.16;75.86
57791;BME280;43621;51.798;21.588;2023-02-17T18:33:51;99029.64;;;7.13;75.87
57791;BME280;43621;51.798;21.588;2023-02-17T18:37:53;99012.86;;;7.07;75.86
57791;BME280;43621;51.798;21.588;2023-02-17T18:41:55;99011.30;;;7.03;75.71
57791;BME280;43621;51.798;21.588;2023-02-17T18:45:57;98997.80;;;7.06;75.79
57791;BME280;43621;51.798;21.588;2023-02-17T18:49:59;98985.02;;;7.09;76.10
57791;BME280;43621;51.798;21.588;2023-02-17T18:54:02;98982.29;;;7.14;75.84
57791;BME280;43621;51.798;21.588;2023-02-17T18:58:05;98974.85;;;7.16;76.02
57791;BME280;43621;51.798;21.588;2023-02-17T19:02:08;98971.13;;;7.15;75.92
57791;BME280;43621;51.798;21.588;2023-02-17T19:06:13;98967.74;;;7.12;76.23
57791;BME280;43621;51.798;21.588;2023-02-17T19:10:16;98966.08;;;7.11;76.04
57791;BME280;43621;51.798;21.588;2023-02-17T19:14:19;98961.02;;;7.15;75.96
57791;BME280;43621;51.798;21.588;2023-02-17T19:18:21;98952.39;;;7.20;76.12
57791;BME280;43621;51.798;21.588;2023-02-17T19:22:24;98947.90;;;7.26;76.27
57791;BME280;43621;51.798;21.588;2023-02-17T19:26:26;98936.86;;;7.30;76.05
57791;BME280;43621;51.798;21.588;2023-02-17T19:30:28;98936.27;;;7.33;76.09
57791;BME280;43621;51.798;21.588;2023-02-17T19:34:30;98936.60;;;7.33;76.15
57791;BME280;43621;51.798;21.588;2023-02-17T19:38:33;98929.52;;;7.34;76.14
57791;BME280;43621;51.798;21.588;2023-02-17T19:42:35;98925.39;;;7.38;76.24
57791;BME280;43621;51.798;21.588;2023-02-17T19:46:37;98924.60;;;7.43;76.20
57791;BME280;43621;51.798;21.588;2023-02-17T19:50:40;98919.94;;;7.48;76.24
57791;BME280;43621;51.798;21.588;2023-02-17T19:54:41;98916.11;;;7.53;76.32
57791;BME280;43621;51.798;21.588;2023-02-17T19:58:44;98912.10;;;7.61;76.47
57791;BME280;43621;51.798;21.588;2023-02-17T20:02:46;98903.02;;;7.65;76.66
57791;BME280;43621;51.798;21.588;2023-02-17T20:06:48;98901.29;;;7.68;76.64
57791;BME280;43621;51.798;21.588;2023-02-17T20:10:50;98895.91;;;7.68;77.04
57791;BME280;43621;51.798;21.588;2023-02-17T20:14:52;98893.33;;;7.66;76.93
57791;BME280;43621;51.798;21.588;2023-02-17T20:18:55;98891.10;;;7.69;77.01
57791;BME280;43621;51.798;21.588;2023-02-17T20:22:57;98891.15;;;7.74;77.06
57791;BME280;43621;51.798;21.588;2023-02-17T20:26:59;98895.48;;;7.80;77.01
57791;BME280;43621;51.798;21.588;2023-02-17T20:31:02;98894.73;;;7.86;77.02
57791;BME280;43621;51.798;21.588;2023-02-17T20:35:04;98893.38;;;7.90;77.32
57791;BME280;43621;51.798;21.588;2023-02-17T20:39:06;98886.42;;;7.96;77.14
57791;BME280;43621;51.798;21.588;2023-02-17T20:43:07;98884.75;;;8.02;77.42
57791;BME280;43621;51.798;21.588;2023-02-17T20:47:12;98883.55;;;8.08;77.41
57791;BME280;43621;51.798;21.588;2023-02-17T20:51:14;98874.76;;;8.12;77.35
57791;BME280;43621;51.798;21.588;2023-02-17T20:55:17;98865.35;;;8.18;77.30
57791;BME280;43621;51.798;21.588;2023-02-17T20:59:20;98863.20;;;8.23;77.29
57791;BME280;43621;51.798;21.588;2023-02-17T21:03:22;98856.48;;;8.28;77.13
57791;BME280;43621;51.798;21.588;2023-02-17T21:07:24;98856.48;;;8.31;77.13
57791;BME280;43621;51.798;21.588;2023-02-17T21:11:27;98844.99;;;8.35;77.26
57791;BME280;43621;51.798;21.588;2023-02-17T21:15:29;98828.50;;;8.39;77.17
57791;BME280;43621;51.798;21.588;2023-02-17T21:19:30;98823.86;;;8.41;77.28
57791;BME280;43621;51.798;21.588;2023-02-17T21:23:33;98824.44;;;8.44;77.24
57791;BME280;43621;51.798;21.588;2023-02-17T21:27:35;98827.91;;;8.48;77.44
57791;BME280;43621;51.798;21.588;2023-02-17T21:31:37;98827.83;;;8.50;77.54
57791;BME280;43621;51.798;21.588;2023-02-17T21:35:39;98828.20;;;8.53;77.53
57791;BME280;43621;51.798;21.588;2023-02-17T21:39:41;98825.31;;;8.56;77.49
57791;BME280;43621;51.798;21.588;2023-02-17T21:43:44;98815.02;;;8.60;77.34
57791;BME280;43621;51.798;21.588;2023-02-17T21:48:06;98809.47;;;8.65;77.29
57791;BME280;43621;51.798;21.588;2023-02-17T21:52:08;98805.14;;;8.68;77.38
57791;BME280;43621;51.798;21.588;2023-02-17T21:56:10;98801.37;;;8.71;77.36
57791;BME280;43621;51.798;21.588;2023-02-17T22:00:13;98795.93;;;8.73;77.45
57791;BME280;43621;51.798;21.588;2023-02-17T22:04:15;98786.09;;;8.76;77.49
57791;BME280;43621;51.798;21.588;2023-02-17T22:08:17;98780.95;;;8.80;77.41
57791;BME280;43621;51.798;21.588;2023-02-17T22:12:19;98777.70;;;8.85;77.27
57791;BME280;43621;51.798;21.588;2023-02-17T22:16:21;98775.46;;;8.88;77.39
57791;BME280;43621;51.798;21.588;2023-02-17T22:20:23;98773.12;;;8.90;77.44
57791;BME280;43621;51.798;21.588;2023-02-17T22:24:26;98768.75;;;8.92;77.68
57791;BME280;43621;51.798;21.588;2023-02-17T22:28:28;98766.46;;;8.93;77.70
57791;BME280;43621;51.798;21.588;2023-02-17T22:32:29;98765.70;;;8.96;77.77
57791;BME280;43621;51.798;21.588;2023-02-17T22:36:33;98764.91;;;8.97;77.81
57791;BME280;43621;51.798;21.588;2023-02-17T22:40:39;98773.36;;;8.98;77.87
57791;BME280;43621;51.798;21.588;2023-02-17T22:44:41;98788.45;;;8.98;77.93
57791;BME280;43621;51.798;21.588;2023-02-17T22:48:45;98797.69;;;8.98;77.74
57791;BME280;43621;51.798;21.588;2023-02-17T22:52:47;98793.21;;;8.98;77.75
57791;BME280;43621;51.798;21.588;2023-02-17T22:56:49;98787.36;;;8.95;77.63
57791;BME280;43621;51.798;21.588;2023-02-17T23:01:10;98780.64;;;8.93;77.44
57791;BME280;43621;51.798;21.588;2023-02-17T23:05:13;98775.79;;;8.89;77.22